Time;durP1;ratioP1;P1;durP2;ratioP2;P2;SDS_P1;SDS_P2;PMS_P1;PMS_P2;Temp;Humidity;BMP_temperature;BMP_pressure;BME280_temperature;BME280_humidity;BME280_pressure;Samples;Min_cycle;Max_cycle;Signal;HPM_P1;HPM_P2
2023/03/03 00:01:02;;;;;;;107.20;49.20;;;;;;;;;;10391661;28;20028;-84
2023/03/03 00:06:04;;;;;;;109.03;49.37;;;;;;;;;;10389255;28;20026;-84
2023/03/03 00:11:06;;;;;;;100.57;45.93;;;;;;;;;;10388737;28;20036;-84
2023/03/03 00:16:15;;;;;;;103.97;44.53;;;;;;;;;;10387615;28;20486;-84
2023/03/03 00:21:22;;;;;;;110.80;48.27;;;;;;;;;;10400644;28;20493;-84
2023/03/03 00:26:26;;;;;;;102.37;45.07;;;;;;;;;;10388990;28;20057;-84
2023/03/03 00:31:33;;;;;;;114.70;48.03;;;;;;;;;;10382258;28;20390;-84
2023/03/03 00:36:37;;;;;;;109.63;47.27;;;;;;;;;;10403778;28;20517;-84
2023/03/03 00:41:39;;;;;;;119.13;52.57;;;;;;;;;;10380354;28;20064;-85
2023/03/03 00:46:40;;;;;;;122.80;57.23;;;;;;;;;;10391963;28;20063;-84
2023/03/03 00:51:42;;;;;;;127.10;56.27;;;;;;;;;;10393345;28;20137;-84
2023/03/03 00:56:44;;;;;;;135.50;59.23;;;;;;;;;;10397922;28;20099;-84
2023/03/03 01:01:45;;;;;;;139.13;57.47;;;;;;;;;;10389283;28;20053;-84
2023/03/03 01:06:46;;;;;;;120.70;54.80;;;;;;;;;;10394818;28;20384;-84
2023/03/03 01:11:47;;;;;;;119.07;54.37;;;;;;;;;;10378962;28;20151;-84
2023/03/03 01:16:49;;;;;;;113.97;51.50;;;;;;;;;;10393369;28;20034;-84
2023/03/03 01:21:50;;;;;;;121.07;52.20;;;;;;;;;;10398685;28;20405;-85
2023/03/03 01:26:51;;;;;;;126.37;54.83;;;;;;;;;;10399660;28;20037;-85
2023/03/03 01:31:52;;;;;;;124.60;55.13;;;;;;;;;;10367885;28;20029;-85
2023/03/03 01:36:53;;;;;;;148.70;64.03;;;;;;;;;;10388288;28;20503;-85
2023/03/03 01:41:54;;;;;;;151.20;66.53;;;;;;;;;;10377811;28;20041;-84
2023/03/03 01:46:57;;;;;;;123.57;51.60;;;;;;;;;;10382043;28;20033;-85
2023/03/03 01:52:00;;;;;;;120.37;49.13;;;;;;;;;;10392617;28;20469;-85
2023/03/03 01:57:04;;;;;;;112.40;47.77;;;;;;;;;;10400935;28;20068;-85
2023/03/03 02:02:05;;;;;;;112.50;48.23;;;;;;;;;;10378875;28;20556;-85
2023/03/03 02:07:09;;;;;;;107.63;44.00;;;;;;;;;;10399423;28;20060;-86
2023/03/03 02:12:13;;;;;;;121.00;52.53;;;;;;;;;;10377716;28;20076;-85
2023/03/03 02:17:14;;;;;;;130.83;54.50;;;;;;;;;;10383920;28;20788;-85
2023/03/03 02:22:17;;;;;;;113.27;51.73;;;;;;;;;;10401029;28;20045;-85
2023/03/03 02:27:18;;;;;;;132.57;53.60;;;;;;;;;;10396207;28;20095;-85
2023/03/03 02:32:19;;;;;;;138.57;57.87;;;;;;;;;;10371470;28;20124;-85
2023/03/03 02:37:20;;;;;;;139.67;61.20;;;;;;;;;;10396283;28;20908;-85
2023/03/03 02:42:23;;;;;;;133.30;59.00;;;;;;;;;;10390166;28;20061;-85
2023/03/03 02:47:24;;;;;;;140.87;60.37;;;;;;;;;;10386849;28;20400;-85
2023/03/03 02:52:25;;;;;;;137.63;58.47;;;;;;;;;;10386844;28;20049;-85
2023/03/03 02:57:26;;;;;;;124.10;54.83;;;;;;;;;;10340143;28;1052337;-85
2023/03/03 03:02:27;;;;;;;133.27;58.67;;;;;;;;;;10385106;28;20842;-85
2023/03/03 03:07:28;;;;;;;151.77;62.50;;;;;;;;;;10375139;28;20030;-86
2023/03/03 03:12:29;;;;;;;154.53;62.23;;;;;;;;;;10401055;28;20034;-86
2023/03/03 03:17:30;;;;;;;145.73;58.83;;;;;;;;;;10378211;28;20025;-85
2023/03/03 03:22:31;;;;;;;152.50;62.53;;;;;;;;;;10395263;28;20038;-85
2023/03/03 03:27:32;;;;;;;145.87;62.27;;;;;;;;;;10366019;28;20284;-85
2023/03/03 03:32:33;;;;;;;134.23;57.10;;;;;;;;;;10382506;28;20027;-85
2023/03/03 03:37:34;;;;;;;130.40;56.93;;;;;;;;;;10389083;28;20087;-86
2023/03/03 03:42:36;;;;;;;136.70;60.57;;;;;;;;;;10386668;28;20132;-86
2023/03/03 03:47:37;;;;;;;133.00;58.27;;;;;;;;;;10387759;28;20029;-86
2023/03/03 03:52:38;;;;;;;118.37;52.63;;;;;;;;;;10393334;28;20045;-84
2023/03/03 03:57:39;;;;;;;132.57;55.93;;;;;;;;;;10382490;28;20064;-85
2023/03/03 04:02:40;;;;;;;122.53;51.17;;;;;;;;;;10377394;28;20041;-85
2023/03/03 04:07:41;;;;;;;108.33;48.67;;;;;;;;;;10387197;28;20025;-85
2023/03/03 04:12:42;;;;;;;117.20;49.43;;;;;;;;;;10391340;28;20029;-85
2023/03/03 04:17:43;;;;;;;117.13;50.83;;;;;;;;;;10392202;28;20428;-86
2023/03/03 04:22:45;;;;;;;127.17;59.60;;;;;;;;;;10379886;28;20061;-85
2023/03/03 04:27:46;;;;;;;145.57;65.07;;;;;;;;;;10375227;28;20029;-85
2023/03/03 04:32:47;;;;;;;147.53;63.73;;;;;;;;;;10376120;28;20466;-85
2023/03/03 04:37:48;;;;;;;156.13;63.63;;;;;;;;;;10395184;28;20034;-84
2023/03/03 04:42:49;;;;;;;149.43;64.33;;;;;;;;;;10397486;28;20053;-84
2023/03/03 04:47:50;;;;;;;154.03;65.20;;;;;;;;;;10364312;28;20121;-86
2023/03/03 04:52:51;;;;;;;154.17;68.27;;;;;;;;;;10375058;28;20033;-87
2023/03/03 04:57:52;;;;;;;162.93;67.70;;;;;;;;;;10364951;28;20065;-87
2023/03/03 05:02:53;;;;;;;164.93;67.13;;;;;;;;;;10354593;28;20073;-88
2023/03/03 05:07:54;;;;;;;209.53;74.47;;;;;;;;;;10376142;28;20076;-86
2023/03/03 05:12:55;;;;;;;244.23;74.47;;;;;;;;;;10369751;28;20034;-83
2023/03/03 05:17:56;;;;;;;212.33;72.70;;;;;;;;;;10370449;28;20033;-83
2023/03/03 05:23:00;;;;;;;176.83;70.97;;;;;;;;;;10369133;28;20049;-87
2023/03/03 05:28:01;;;;;;;142.47;59.90;;;;;;;;;;10368866;28;20045;-84
2023/03/03 05:33:02;;;;;;;162.57;65.07;;;;;;;;;;10387252;28;20029;-84
2023/03/03 05:38:03;;;;;;;150.50;62.90;;;;;;;;;;10406209;28;20039;-85
2023/03/03 05:43:05;;;;;;;167.43;66.00;;;;;;;;;;10384630;28;20040;-84
2023/03/03 05:48:08;;;;;;;154.20;61.47;;;;;;;;;;10404930;28;20014;-85
2023/03/03 05:53:09;;;;;;;185.10;72.60;;;;;;;;;;10405050;28;20037;-85
2023/03/03 05:58:11;;;;;;;186.80;66.50;;;;;;;;;;10406014;28;20057;-85
2023/03/03 06:03:12;;;;;;;178.93;67.10;;;;;;;;;;10404620;28;20033;-85
2023/03/03 06:08:13;;;;;;;175.40;64.47;;;;;;;;;;10404471;28;20595;-85
2023/03/03 06:13:14;;;;;;;151.33;60.20;;;;;;;;;;10403754;28;20505;-84
2023/03/03 06:18:15;;;;;;;171.53;69.53;;;;;;;;;;10404931;28;20091;-86
2023/03/03 06:23:16;;;;;;;174.47;63.50;;;;;;;;;;10404353;28;20037;-84
2023/03/03 06:28:17;;;;;;;182.93;66.63;;;;;;;;;;10389476;28;20037;-85
2023/03/03 06:33:18;;;;;;;138.00;56.80;;;;;;;;;;10404358;28;20539;-85
2023/03/03 06:38:19;;;;;;;136.13;55.00;;;;;;;;;;10390684;28;20385;-84
2023/03/03 06:43:20;;;;;;;130.50;47.73;;;;;;;;;;10403795;28;20029;-85
2023/03/03 06:48:21;;;;;;;108.50;41.93;;;;;;;;;;10401554;28;20033;-84
2023/03/03 06:53:22;;;;;;;122.43;47.47;;;;;;;;;;10402974;28;20025;-84
2023/03/03 06:58:26;;;;;;;116.20;46.83;;;;;;;;;;10403055;28;20045;-84
2023/03/03 07:03:34;;;;;;;142.17;57.87;;;;;;;;;;10402764;28;20044;-85
2023/03/03 07:08:35;;;;;;;177.10;68.30;;;;;;;;;;10403071;28;20060;-85
2023/03/03 07:13:39;;;;;;;158.00;54.17;;;;;;;;;;10402284;28;20033;-85
2023/03/03 07:19:10;;;;;;;137.23;53.17;;;;;;;;;;10402592;28;20032;-84
2023/03/03 07:24:26;;;;;;;132.07;54.63;;;;;;;;;;10387870;28;20420;-85
2023/03/03 07:29:32;;;;;;;124.77;50.50;;;;;;;;;;10402384;28;20095;-84
2023/03/03 07:34:37;;;;;;;132.23;53.33;;;;;;;;;;10401965;28;20127;-84
2023/03/03 07:39:39;;;;;;;125.78;49.55;;;;;;;;;;10401848;28;20082;-84
2023/03/03 07:44:41;;;;;;;140.70;49.73;;;;;;;;;;10402144;28;20048;-84
2023/03/03 07:49:42;;;;;;;106.07;34.57;;;;;;;;;;10397318;28;20026;-85
2023/03/03 07:54:44;;;;;;;103.33;37.37;;;;;;;;;;10393495;28;20069;-84
2023/03/03 07:59:54;;;;;;;103.07;38.13;;;;;;;;;;10399935;28;20033;-84
2023/03/03 08:04:55;;;;;;;142.73;48.80;;;;;;;;;;10401672;28;20037;-84
2023/03/03 08:10:00;;;;;;;143.33;47.23;;;;;;;;;;10388496;28;20125;-85
2023/03/03 08:15:11;;;;;;;198.37;67.83;;;;;;;;;;10399849;28;20040;-84
2023/03/03 08:20:31;;;;;;;180.87;61.47;;;;;;;;;;10401426;28;20038;-84
2023/03/03 08:25:32;;;;;;;170.90;54.60;;;;;;;;;;10388417;28;20056;-84
2023/03/03 08:30:33;;;;;;;136.13;47.53;;;;;;;;;;10401354;28;20499;-85
2023/03/03 08:35:35;;;;;;;136.60;45.90;;;;;;;;;;10386142;28;20665;-84
2023/03/03 08:40:36;;;;;;;101.03;32.73;;;;;;;;;;10388112;28;20038;-84
2023/03/03 08:45:38;;;;;;;106.17;33.97;;;;;;;;;;10386469;28;20049;-85
2023/03/03 08:50:39;;;;;;;73.73;26.17;;;;;;;;;;10388556;28;20496;-86
2023/03/03 08:55:41;;;;;;;84.27;28.27;;;;;;;;;;10380899;28;20729;-86
2023/03/03 09:00:42;;;;;;;77.33;28.47;;;;;;;;;;10394817;28;20037;-85
2023/03/03 09:05:44;;;;;;;72.67;26.63;;;;;;;;;;10398248;28;20042;-86
2023/03/03 09:10:45;;;;;;;64.03;21.93;;;;;;;;;;10396600;28;20021;-86
2023/03/03 09:15:47;;;;;;;76.23;28.93;;;;;;;;;;10396365;28;20392;-86
2023/03/03 09:20:50;;;;;;;69.10;24.77;;;;;;;;;;10406482;28;20033;-84
2023/03/03 09:25:52;;;;;;;63.50;23.53;;;;;;;;;;10374062;28;20037;-85
2023/03/03 09:30:53;;;;;;;66.90;24.33;;;;;;;;;;10379948;28;20119;-85
2023/03/03 09:36:01;;;;;;;69.50;24.53;;;;;;;;;;10387882;28;20095;-85
2023/03/03 09:41:12;;;;;;;80.50;27.60;;;;;;;;;;10375346;28;20473;-84
2023/03/03 09:46:32;;;;;;;71.67;25.40;;;;;;;;;;10360013;28;20543;-85
2023/03/03 09:51:44;;;;;;;72.50;25.83;;;;;;;;;;10394573;28;20025;-85
2023/03/03 09:56:45;;;;;;;72.33;25.73;;;;;;;;;;10361900;28;20054;-86
2023/03/03 10:01:49;;;;;;;73.83;28.27;;;;;;;;;;10350655;28;20034;-84
2023/03/03 10:07:07;;;;;;;73.37;27.70;;;;;;;;;;10366923;28;20804;-86
2023/03/03 10:12:14;;;;;;;58.50;21.93;;;;;;;;;;10352684;28;20436;-87
2023/03/03 10:17:22;;;;;;;83.93;34.17;;;;;;;;;;10369792;28;20029;-85
2023/03/03 10:22:29;;;;;;;87.23;33.57;;;;;;;;;;10372108;28;20030;-87
2023/03/03 10:27:39;;;;;;;77.33;26.40;;;;;;;;;;10340056;28;20083;-87
2023/03/03 10:32:59;;;;;;;68.33;24.30;;;;;;;;;;10353889;28;20034;-87
2023/03/03 10:38:29;;;;;;;67.77;23.73;;;;;;;;;;10345233;28;20030;-87
2023/03/03 10:43:30;;;;;;;68.40;26.13;;;;;;;;;;10340507;28;20145;-86
2023/03/03 10:48:37;;;;;;;59.93;24.13;;;;;;;;;;10354672;28;20041;-86
2023/03/03 10:53:57;;;;;;;62.80;23.53;;;;;;;;;;10349205;28;20067;-87
2023/03/03 10:59:10;;;;;;;62.10;24.27;;;;;;;;;;10370779;28;20045;-87
2023/03/03 11:04:17;;;;;;;55.90;21.70;;;;;;;;;;10395671;28;20392;-86
2023/03/03 11:09:35;;;;;;;48.17;19.40;;;;;;;;;;10395846;28;20042;-87
2023/03/03 11:14:46;;;;;;;50.90;20.03;;;;;;;;;;10399463;28;20445;-87
2023/03/03 11:19:53;;;;;;;50.03;21.03;;;;;;;;;;10379013;28;20083;-85
2023/03/03 11:24:53;;;;;;;53.30;20.53;;;;;;;;;;10389485;28;20051;-84
2023/03/03 11:30:05;;;;;;;56.33;21.77;;;;;;;;;;10386985;28;20500;-85
2023/03/03 11:35:06;;;;;;;64.33;25.90;;;;;;;;;;10390228;28;20038;-86
2023/03/03 11:40:28;;;;;;;62.80;23.90;;;;;;;;;;10390247;28;20484;-85
2023/03/03 11:45:34;;;;;;;61.27;24.80;;;;;;;;;;10385589;28;20761;-84
2023/03/03 11:50:37;;;;;;;48.83;19.95;;;;;;;;;;10396782;28;20029;-86
2023/03/03 11:55:41;;;;;;;52.83;22.23;;;;;;;;;;10385873;28;20045;-84
2023/03/03 12:00:48;;;;;;;41.97;17.43;;;;;;;;;;10383148;28;20052;-85
2023/03/03 12:06:08;;;;;;;38.90;16.03;;;;;;;;;;10389602;28;20068;-85
2023/03/03 12:11:30;;;;;;;49.53;19.93;;;;;;;;;;10389536;28;20033;-84
2023/03/03 12:16:31;;;;;;;46.97;20.70;;;;;;;;;;10400568;28;20025;-84
2023/03/03 12:21:32;;;;;;;48.23;19.73;;;;;;;;;;10398450;28;20042;-84
2023/03/03 12:26:47;;;;;;;59.33;25.73;;;;;;;;;;10383793;28;20045;-83
2023/03/03 12:31:51;;;;;;;62.80;26.73;;;;;;;;;;10370345;28;20121;-84
2023/03/03 12:36:55;;;;;;;75.47;29.67;;;;;;;;;;10398854;28;20044;-85
2023/03/03 12:42:05;;;;;;;49.60;20.83;;;;;;;;;;10408695;28;20059;-84
2023/03/03 12:47:06;;;;;;;52.03;23.60;;;;;;;;;;10386869;28;20037;-85
2023/03/03 12:52:26;;;;;;;33.33;14.50;;;;;;;;;;10379821;28;20021;-85
2023/03/03 12:57:35;;;;;;;32.17;14.67;;;;;;;;;;10400389;28;20116;-85
2023/03/03 13:02:39;;;;;;;54.63;24.07;;;;;;;;;;10378874;28;20607;-84
2023/03/03 13:07:50;;;;;;;115.07;44.80;;;;;;;;;;10398121;28;20032;-84
2023/03/03 13:12:57;;;;;;;66.03;27.17;;;;;;;;;;10382188;28;20044;-83
2023/03/03 13:18:01;;;;;;;59.00;23.67;;;;;;;;;;10401329;28;20063;-83
2023/03/03 13:23:05;;;;;;;60.87;24.37;;;;;;;;;;10372293;28;20121;-83
2023/03/03 13:28:27;;;;;;;47.73;20.00;;;;;;;;;;10369475;28;20429;-83
2023/03/03 13:33:29;;;;;;;38.77;16.37;;;;;;;;;;10374049;28;20041;-82
2023/03/03 13:38:36;;;;;;;49.93;23.10;;;;;;;;;;10400437;28;20033;-84
2023/03/03 13:44:03;;;;;;;38.53;18.67;;;;;;;;;;10373316;28;20049;-84
2023/03/03 13:49:23;;;;;;;63.43;27.43;;;;;;;;;;10372104;28;20050;-85
2023/03/03 13:54:24;;;;;;;50.13;22.50;;;;;;;;;;10381646;28;20072;-82
2023/03/03 13:59:34;;;;;;;59.70;25.30;;;;;;;;;;10405568;28;20080;-84
2023/03/03 14:04:47;;;;;;;61.00;24.87;;;;;;;;;;10377015;28;20053;-85
2023/03/03 14:10:11;;;;;;;67.30;29.53;;;;;;;;;;10368555;28;20033;-84
2023/03/03 14:15:21;;;;;;;74.87;32.30;;;;;;;;;;10353101;28;20045;-84
2023/03/03 14:20:27;;;;;;;47.43;22.67;;;;;;;;;;10362884;28;20046;-86
2023/03/03 14:25:48;;;;;;;81.90;33.58;;;;;;;;;;10360821;28;20072;-85
2023/03/03 14:30:49;;;;;;;74.43;33.70;;;;;;;;;;10356031;28;20034;-84
2023/03/03 14:36:00;;;;;;;51.13;24.13;;;;;;;;;;10355930;28;20038;-83
2023/03/03 14:41:21;;;;;;;71.63;31.20;;;;;;;;;;10359231;28;20038;-83
2023/03/03 14:46:22;;;;;;;51.23;22.43;;;;;;;;;;10358942;28;20042;-86
2023/03/03 14:51:24;;;;;;;100.10;39.93;;;;;;;;;;10356258;28;20141;-84
2023/03/03 14:56:27;;;;;;;110.30;47.47;;;;;;;;;;10362763;28;20069;-84
2023/03/03 15:01:31;;;;;;;104.90;46.93;;;;;;;;;;10361733;28;20046;-84
2023/03/03 15:06:34;;;;;;;79.87;31.53;;;;;;;;;;10361830;28;20127;-84
2023/03/03 15:11:36;;;;;;;50.63;23.47;;;;;;;;;;10355452;28;20030;-85
2023/03/03 15:16:38;;;;;;;50.07;19.30;;;;;;;;;;10360240;28;20026;-84
2023/03/03 15:21:49;;;;;;;41.07;18.20;;;;;;;;;;10359388;28;20100;-84
2023/03/03 15:26:59;;;;;;;49.23;22.53;;;;;;;;;;10373658;28;20045;-86
2023/03/03 15:32:06;;;;;;;61.13;25.90;;;;;;;;;;10372404;28;20041;-87
2023/03/03 15:37:22;;;;;;;58.13;24.10;;;;;;;;;;10370349;28;20413;-82
2023/03/03 15:42:40;;;;;;;67.40;29.97;;;;;;;;;;10360964;28;20052;-84
2023/03/03 15:47:56;;;;;;;69.87;29.57;;;;;;;;;;10362071;28;20092;-84
2023/03/03 15:53:15;;;;;;;61.35;26.83;;;;;;;;;;10393175;28;20104;-85
2023/03/03 15:58:20;;;;;;;67.77;28.83;;;;;;;;;;10393126;28;20088;-86
2023/03/03 16:03:28;;;;;;;94.00;40.90;;;;;;;;;;10393804;28;20483;-84
2023/03/03 16:08:41;;;;;;;80.73;33.73;;;;;;;;;;10386066;28;20071;-85
2023/03/03 16:13:42;;;;;;;60.13;26.90;;;;;;;;;;10400967;28;20099;-84
2023/03/03 16:18:56;;;;;;;58.17;26.33;;;;;;;;;;10395361;28;20464;-86
2023/03/03 16:23:59;;;;;;;70.80;30.43;;;;;;;;;;10392319;28;20073;-85
2023/03/03 16:29:06;;;;;;;75.93;31.97;;;;;;;;;;10353099;28;20037;-86
2023/03/03 16:34:20;;;;;;;94.57;43.20;;;;;;;;;;10358537;28;20046;-85
2023/03/03 16:39:29;;;;;;;93.10;45.80;;;;;;;;;;10372945;28;20038;-85
2023/03/03 16:44:36;;;;;;;97.20;42.97;;;;;;;;;;10362206;28;20041;-87
2023/03/03 16:49:44;;;;;;;56.57;25.63;;;;;;;;;;10361415;28;20042;-84
2023/03/03 16:54:53;;;;;;;117.73;48.47;;;;;;;;;;10366546;28;20513;-85
2023/03/03 16:59:59;;;;;;;90.47;40.47;;;;;;;;;;10365333;28;20026;-84
2023/03/03 17:05:19;;;;;;;77.13;32.60;;;;;;;;;;10360507;28;20410;-84
2023/03/03 17:10:22;;;;;;;83.70;35.17;;;;;;;;;;10366223;28;20030;-83
2023/03/03 17:15:32;;;;;;;47.40;18.20;;;;;;;;;;10364843;28;20625;-84
2023/03/03 17:20:50;;;;;;;30.37;14.30;;;;;;;;;;10359322;28;20018;-84
2023/03/03 17:26:03;;;;;;;40.13;17.47;;;;;;;;;;10366084;28;20084;-84
2023/03/03 17:31:20;;;;;;;109.70;44.43;;;;;;;;;;10360941;28;20029;-83
2023/03/03 17:36:21;;;;;;;;;;;;;;;;;;10362833;28;20060;-84
2023/03/03 17:41:28;;;;;;;111.07;43.73;;;;;;;;;;10364980;28;19920;-84
2023/03/03 17:46:35;;;;;;;147.27;57.30;;;;;;;;;;10347229;28;20655;-85
2023/03/03 17:51:40;;;;;;;135.73;49.70;;;;;;;;;;10376903;28;20037;-83
2023/03/03 17:56:47;;;;;;;142.97;57.83;;;;;;;;;;10372204;28;20788;-84
2023/03/03 18:02:18;;;;;;;111.13;48.13;;;;;;;;;;10358621;28;20121;-85
2023/03/03 18:07:29;;;;;;;131.10;51.63;;;;;;;;;;10391733;28;20048;-84
2023/03/03 18:12:49;;;;;;;108.23;41.67;;;;;;;;;;10369448;28;20041;-84
2023/03/03 18:18:03;;;;;;;62.37;23.80;;;;;;;;;;10379149;28;20049;-83
2023/03/03 18:23:20;;;;;;;67.63;24.73;;;;;;;;;;10371560;28;20038;-82
2023/03/03 18:28:21;;;;;;;;;;;;;;;;;;10361313;28;20814;-84
2023/03/03 18:33:35;;;;;;;110.90;41.47;;;;;;;;;;10365992;28;19982;-84
2023/03/03 18:38:38;;;;;;;121.00;46.00;;;;;;;;;;10362522;28;20749;-85
2023/03/03 18:43:39;;;;;;;109.10;38.00;;;;;;;;;;10360939;28;20413;-84
2023/03/03 18:48:51;;;;;;;120.70;43.80;;;;;;;;;;10361152;28;20057;-84
2023/03/03 18:53:59;;;;;;;104.77;35.50;;;;;;;;;;10361331;28;20053;-84
2023/03/03 18:59:00;;;;;;;113.33;42.40;;;;;;;;;;10375496;28;20037;-86
2023/03/03 19:04:15;;;;;;;109.53;38.73;;;;;;;;;;10362968;28;20378;-86
2023/03/03 19:09:20;;;;;;;119.33;45.07;;;;;;;;;;10365070;28;20780;-86
2023/03/03 19:14:28;;;;;;;118.13;44.47;;;;;;;;;;10371570;28;20469;-86
2023/03/03 19:19:33;;;;;;;116.97;46.07;;;;;;;;;;10377575;28;20033;-83
2023/03/03 19:24:34;;;;;;;180.52;74.28;;;;;;;;;;10375470;28;20037;-83
2023/03/03 19:29:53;;;;;;;149.67;57.70;;;;;;;;;;10369233;28;20034;-85
2023/03/03 19:35:12;;;;;;;155.10;65.10;;;;;;;;;;10373119;28;20033;-84
2023/03/03 19:40:13;;;;;;;122.77;50.57;;;;;;;;;;10355153;28;20053;-86
2023/03/03 19:45:19;;;;;;;115.53;44.13;;;;;;;;;;10381556;28;20556;-85
2023/03/03 19:50:29;;;;;;;110.18;41.90;;;;;;;;;;10367776;28;20066;-86
2023/03/03 19:55:37;;;;;;;110.50;39.73;;;;;;;;;;10396050;28;20045;-86
2023/03/03 20:00:38;;;;;;;130.10;47.73;;;;;;;;;;10372633;28;20025;-84
2023/03/03 20:05:45;;;;;;;139.17;50.67;;;;;;;;;;10389630;28;20045;-86
2023/03/03 20:10:54;;;;;;;122.27;46.47;;;;;;;;;;10372290;28;20799;-84
2023/03/03 20:16:02;;;;;;;104.57;41.20;;;;;;;;;;10397474;28;20049;-84
2023/03/03 20:21:30;;;;;;;109.50;44.13;;;;;;;;;;10377036;28;20465;-84
2023/03/03 20:26:44;;;;;;;119.07;45.67;;;;;;;;;;10377151;28;20053;-84
2023/03/03 20:31:51;;;;;;;141.40;57.67;;;;;;;;;;10381748;28;20045;-84
2023/03/03 20:37:01;;;;;;;112.93;44.90;;;;;;;;;;10389743;28;20037;-84
2023/03/03 20:42:08;;;;;;;138.17;50.37;;;;;;;;;;10383501;28;20080;-83
2023/03/03 20:47:32;;;;;;;105.60;38.60;;;;;;;;;;10385014;28;20064;-83
2023/03/03 20:52:41;;;;;;;103.80;37.33;;;;;;;;;;10391598;28;20552;-84
2023/03/03 20:57:58;;;;;;;107.43;41.03;;;;;;;;;;10406253;28;20075;-84
2023/03/03 21:03:03;;;;;;;102.20;39.07;;;;;;;;;;10364659;28;20046;-86
2023/03/03 21:08:06;;;;;;;102.90;41.23;;;;;;;;;;10398990;28;20036;-84
2023/03/03 21:13:32;;;;;;;95.60;37.13;;;;;;;;;;10382860;28;20064;-83
2023/03/03 21:18:33;;;;;;;96.87;39.00;;;;;;;;;;10359881;28;20064;-84
2023/03/03 21:23:34;;;;;;;107.83;41.20;;;;;;;;;;10365712;28;20118;-84
2023/03/03 21:28:35;;;;;;;108.57;41.37;;;;;;;;;;10365932;28;20061;-84
2023/03/03 21:33:39;;;;;;;109.97;41.27;;;;;;;;;;10364794;28;20042;-84
2023/03/03 21:38:40;;;;;;;84.23;32.37;;;;;;;;;;10364192;28;20076;-84
2023/03/03 21:43:43;;;;;;;101.40;40.57;;;;;;;;;;10364008;28;20053;-84
2023/03/03 21:48:44;;;;;;;83.53;29.13;;;;;;;;;;10375575;28;20097;-84
2023/03/03 21:53:45;;;;;;;81.00;29.83;;;;;;;;;;10406139;28;20049;-84
2023/03/03 21:58:46;;;;;;;86.37;34.47;;;;;;;;;;10399100;28;20133;-84
2023/03/03 22:03:47;;;;;;;102.43;39.50;;;;;;;;;;10390147;28;20431;-84
2023/03/03 22:08:48;;;;;;;105.80;38.33;;;;;;;;;;10400075;28;20033;-84
2023/03/03 22:13:49;;;;;;;111.13;40.27;;;;;;;;;;10393696;28;20045;-84
2023/03/03 22:18:50;;;;;;;124.30;45.40;;;;;;;;;;10375879;28;20466;-84
2023/03/03 22:23:51;;;;;;;122.47;44.27;;;;;;;;;;10380575;28;20042;-85
2023/03/03 22:28:52;;;;;;;111.53;44.97;;;;;;;;;;10395206;28;20037;-84
2023/03/03 22:33:53;;;;;;;110.77;43.33;;;;;;;;;;10370775;28;20026;-83
2023/03/03 22:38:54;;;;;;;95.33;36.97;;;;;;;;;;10387619;28;20039;-84
2023/03/03 22:43:55;;;;;;;83.73;32.37;;;;;;;;;;10404177;28;20504;-85
2023/03/03 22:48:56;;;;;;;88.30;33.20;;;;;;;;;;10388569;28;20045;-83
2023/03/03 22:53:57;;;;;;;87.13;31.50;;;;;;;;;;10402879;28;20056;-84
2023/03/03 22:58:58;;;;;;;85.83;32.90;;;;;;;;;;10393538;28;20107;-84
2023/03/03 23:03:59;;;;;;;101.30;35.50;;;;;;;;;;10386274;28;20123;-85
2023/03/03 23:09:00;;;;;;;88.27;33.77;;;;;;;;;;10368383;28;20649;-83
2023/03/03 23:14:01;;;;;;;87.70;33.20;;;;;;;;;;10388412;28;20025;-82
2023/03/03 23:19:02;;;;;;;71.10;28.97;;;;;;;;;;10374314;28;20025;-84
2023/03/03 23:24:03;;;;;;;78.00;28.20;;;;;;;;;;10391763;28;20037;-83
2023/03/03 23:29:04;;;;;;;88.83;35.53;;;;;;;;;;10401062;28;20026;-83
2023/03/03 23:34:05;;;;;;;82.73;31.97;;;;;;;;;;10361381;28;20036;-84
2023/03/03 23:39:06;;;;;;;76.63;31.87;;;;;;;;;;10388975;28;20037;-84
2023/03/03 23:44:07;;;;;;;83.53;34.30;;;;;;;;;;10392070;28;20715;-84
2023/03/03 23:49:08;;;;;;;85.13;32.17;;;;;;;;;;10365719;28;20065;-83
2023/03/03 23:54:09;;;;;;;98.50;37.57;;;;;;;;;;10381466;28;20038;-83
2023/03/03 23:59:10;;;;;;;92.40;35.40;;;;;;;;;;10386215;28;20025;-84
